Time;durP1;ratioP1;P1;durP2;ratioP2;P2;SDS_P1;SDS_P2;PMS_P1;PMS_P2;Temp;Humidity;BMP_temperature;BMP_pressure;BME280_temperature;BME280_humidity;BME280_pressure;Samples;Min_cycle;Max_cycle;Signal;HPM_P1;HPM_P2
2024/03/10 00:02:43;;;;;;;11.52;9.43;;;;;;;13.44;88.60;99536.66;5016109;28;20057;-78
2024/03/10 00:05:51;;;;;;;10.35;8.60;;;;;;;13.53;88.73;99524.81;5015096;28;20053;-78
2024/03/10 00:08:56;;;;;;;11.00;9.80;;;;;;;13.35;89.58;99526.91;4993142;28;20065;-78
2024/03/10 00:12:00;;;;;;;10.23;9.00;;;;;;;13.76;87.70;99524.91;5015448;28;20076;-77
2024/03/10 00:15:06;;;;;;;13.50;9.85;;;;;;;13.59;88.07;99518.75;5004019;28;20381;-78
2024/03/10 00:18:11;;;;;;;11.57;9.75;;;;;;;13.04;90.13;99526.75;5015930;28;20052;-78
2024/03/10 00:21:15;;;;;;;12.07;9.80;;;;;;;13.31;90.02;99504.00;5015736;28;20052;-77
2024/03/10 00:24:20;;;;;;;13.52;9.98;;;;;;;12.98;90.97;99489.75;5015655;28;20053;-77
2024/03/10 00:27:25;;;;;;;12.10;9.40;;;;;;;13.40;89.07;99492.19;5015789;28;20057;-77
2024/03/10 00:30:33;;;;;;;12.98;10.05;;;;;;;13.24;90.69;99481.44;5003737;28;20053;-79
2024/03/10 00:33:38;;;;;;;13.05;10.07;;;;;;;13.23;89.96;99468.16;5015625;28;20076;-78
2024/03/10 00:36:43;;;;;;;12.77;10.75;;;;;;;13.00;91.13;99450.00;5015527;28;20056;-78
2024/03/10 00:39:48;;;;;;;12.05;10.68;;;;;;;12.71;91.81;99456.97;5015492;28;20496;-77
2024/03/10 00:42:53;;;;;;;11.52;10.23;;;;;;;12.82;92.48;99448.50;5015379;28;20053;-77
2024/03/10 00:45:58;;;;;;;13.75;10.48;;;;;;;12.91;91.27;99439.44;5016904;28;20065;-77
2024/03/10 00:49:02;;;;;;;11.45;9.93;;;;;;;12.97;91.52;99438.72;5023746;28;20046;-79
2024/03/10 00:52:07;;;;;;;15.45;11.10;;;;;;;12.75;92.35;99442.97;5005578;28;20488;-77
2024/03/10 00:55:12;;;;;;;15.30;11.23;;;;;;;12.73;92.98;99445.00;5015217;28;20386;-78
2024/03/10 00:58:17;;;;;;;13.32;10.60;;;;;;;12.71;92.77;99425.50;5015123;28;20060;-77
2024/03/10 01:01:21;;;;;;;14.70;11.63;;;;;;;12.40;94.04;99422.66;5014907;28;20497;-77
2024/03/10 01:04:26;;;;;;;17.25;11.95;;;;;;;12.68;94.28;99414.22;5015022;28;20053;-77
2024/03/10 01:07:31;;;;;;;15.70;12.35;;;;;;;12.94;92.91;99404.03;5014862;28;20045;-77
2024/03/10 01:10:36;;;;;;;18.38;13.20;;;;;;;12.88;92.64;99402.06;5014866;28;20155;-81
2024/03/10 01:13:40;;;;;;;18.58;14.43;;;;;;;12.95;92.66;99395.81;5002702;28;20053;-77
2024/03/10 01:16:44;;;;;;;20.95;13.48;;;;;;;13.12;92.07;99396.63;5014702;28;20042;-76
2024/03/10 01:19:49;;;;;;;21.33;14.95;;;;;;;13.04;92.64;99391.22;5014670;28;20524;-78
2024/03/10 01:22:53;;;;;;;23.73;16.33;;;;;;;12.96;92.39;99389.38;5002590;28;20042;-78
2024/03/10 01:25:58;;;;;;;24.55;17.27;;;;;;;12.84;93.84;99388.06;5014702;28;20068;-78
2024/03/10 01:29:02;;;;;;;25.65;18.17;;;;;;;12.74;94.59;99397.38;5014739;28;20069;-77
2024/03/10 01:32:08;;;;;;;23.52;16.73;;;;;;;12.68;94.11;99387.28;5014659;28;20049;-77
2024/03/10 01:35:13;;;;;;;21.95;16.45;;;;;;;12.60;94.86;99376.53;5014211;28;20503;-77
2024/03/10 01:38:18;;;;;;;22.35;16.40;;;;;;;12.84;93.45;99365.69;5014468;28;20042;-77
2024/03/10 01:41:25;;;;;;;25.05;17.67;;;;;;;13.19;92.98;99354.47;5002232;28;20061;-78
2024/03/10 01:44:29;;;;;;;20.15;15.75;;;;;;;13.00;92.76;99357.56;5001959;28;20056;-77
2024/03/10 01:47:34;;;;;;;20.50;15.25;;;;;;;12.82;93.08;99354.25;5013972;28;20049;-77
2024/03/10 01:50:39;;;;;;;24.20;15.77;;;;;;;13.04;92.26;99353.50;5014281;28;20468;-77
2024/03/10 01:53:45;;;;;;;22.63;15.00;;;;;;;13.25;91.86;99351.09;5014254;28;20053;-78
2024/03/10 01:56:50;;;;;;;24.00;15.57;;;;;;;12.96;92.57;99346.28;5014098;28;20075;-77
2024/03/10 01:59:55;;;;;;;19.95;13.00;;;;;;;12.79;93.92;99333.06;5014066;28;20042;-78
2024/03/10 02:03:00;;;;;;;19.52;13.77;;;;;;;12.92;93.46;99330.66;5014074;28;20053;-78
2024/03/10 02:06:09;;;;;;;22.58;13.38;;;;;;;12.93;93.46;99326.97;5013847;28;20072;-77
2024/03/10 02:09:14;;;;;;;18.15;13.23;;;;;;;12.98;93.30;99321.88;5013971;28;20053;-76
2024/03/10 02:12:20;;;;;;;19.30;13.10;;;;;;;12.62;94.98;99312.56;5013497;28;20060;-77
2024/03/10 02:15:24;;;;;;;20.50;13.93;;;;;;;12.56;95.98;99308.75;5013971;28;20496;-77
2024/03/10 02:18:29;;;;;;;17.30;13.35;;;;;;;12.56;95.92;99289.91;5014098;28;20042;-78
2024/03/10 02:21:34;;;;;;;20.70;14.23;;;;;;;12.44;96.34;99291.28;5020110;28;20046;-78
2024/03/10 02:24:43;;;;;;;17.63;12.82;;;;;;;12.81;95.45;99271.81;5018494;28;20045;-77
2024/03/10 02:27:50;;;;;;;19.88;13.65;;;;;;;12.78;95.20;99267.59;5014005;28;20053;-77
2024/03/10 02:30:57;;;;;;;22.40;13.23;;;;;;;12.67;95.61;99259.91;5005977;28;20048;-78
2024/03/10 02:47:42;;;;;;;19.20;14.83;;;;;;;13.08;93.67;99244.41;5017621;28;20065;-77
2024/03/10 02:50:49;;;;;;;20.23;13.57;;;;;;;13.25;93.14;99229.81;5017633;28;20061;-77
2024/03/10 02:53:54;;;;;;;20.00;15.05;;;;;;;13.34;93.32;99228.75;5017518;28;20164;-77
2024/03/10 02:56:59;;;;;;;21.83;14.57;;;;;;;13.36;93.56;99224.00;5017453;28;20389;-78
2024/03/10 03:00:09;;;;;;;20.55;14.18;;;;;;;13.50;92.43;99211.59;5017406;28;20076;-77
2024/03/10 03:03:13;;;;;;;22.05;13.77;;;;;;;13.50;91.45;99203.53;5017270;28;20053;-77
2024/03/10 03:06:18;;;;;;;20.92;13.88;;;;;;;13.27;92.45;99203.53;5016970;28;20485;-77
2024/03/10 03:09:23;;;;;;;21.75;13.90;;;;;;;13.20;93.85;99194.50;5017092;28;20049;-78
2024/03/10 03:12:28;;;;;;;20.77;13.95;;;;;;;13.44;92.58;99190.75;5016884;28;20057;-78
2024/03/10 03:15:32;;;;;;;20.10;14.10;;;;;;;13.27;92.82;99183.81;5017259;28;20072;-77
2024/03/10 03:18:37;;;;;;;19.60;14.15;;;;;;;13.70;91.50;99170.44;5017207;28;20038;-78
2024/03/10 03:21:43;;;;;;;19.48;13.93;;;;;;;13.45;92.38;99163.63;5004967;28;20504;-77
2024/03/10 03:24:48;;;;;;;18.25;13.55;;;;;;;13.35;92.95;99167.59;5017029;28;20404;-78
2024/03/10 03:27:53;;;;;;;20.67;14.02;;;;;;;13.34;93.55;99160.50;5017018;28;20037;-77
2024/03/10 03:30:57;;;;;;;20.08;13.35;;;;;;;13.54;92.63;99151.75;5016988;28;20088;-77
2024/03/10 03:34:02;;;;;;;21.52;13.88;;;;;;;13.52;92.71;99150.25;5016646;28;20049;-78
2024/03/10 03:37:09;;;;;;;17.13;13.18;;;;;;;13.54;92.99;99154.44;5016810;28;20038;-77
2024/03/10 03:40:15;;;;;;;16.90;12.32;;;;;;;13.49;92.63;99159.53;5015548;28;20058;-78
2024/03/10 03:43:19;;;;;;;19.65;12.73;;;;;;;13.37;93.65;99152.91;5016737;28;20057;-78
2024/03/10 03:46:23;;;;;;;18.73;12.55;;;;;;;13.22;94.25;99168.19;5004591;28;20046;-78
2024/03/10 03:49:28;;;;;;;18.40;12.88;;;;;;;13.06;94.88;99157.53;5016602;28;20512;-78
2024/03/10 03:52:33;;;;;;;19.63;12.30;;;;;;;13.45;94.05;99150.16;5016744;28;20500;-78
2024/03/10 03:55:37;;;;;;;18.42;13.38;;;;;;;13.21;94.65;99142.25;5020650;28;20034;-79
2024/03/10 03:58:41;;;;;;;18.90;13.23;;;;;;;13.14;94.64;99146.69;5024252;28;20061;-78
2024/03/10 04:01:46;;;;;;;17.33;12.75;;;;;;;13.12;94.68;99159.50;5016531;28;20469;-77
2024/03/10 04:04:54;;;;;;;19.25;13.57;;;;;;;12.95;96.10;99139.91;5016287;28;20050;-79
2024/03/10 04:07:59;;;;;;;17.75;13.32;;;;;;;13.17;95.11;99132.03;5016044;28;20046;-78
2024/03/10 04:11:03;;;;;;;16.02;12.48;;;;;;;13.02;96.36;99122.00;5003683;28;20394;-78
2024/03/10 04:14:08;;;;;;;15.68;12.23;;;;;;;13.13;95.71;99110.00;5016135;28;20049;-77
2024/03/10 04:17:12;;;;;;;15.00;11.55;;;;;;;13.34;94.88;99096.69;5004020;28;20041;-78
2024/03/10 04:20:16;;;;;;;14.23;10.52;;;;;;;13.04;95.39;99082.25;5016023;28;20052;-78
2024/03/10 04:23:21;;;;;;;18.85;11.93;;;;;;;13.01;96.00;99079.09;5015956;28;20053;-77
2024/03/10 04:26:27;;;;;;;13.73;10.77;;;;;;;12.89;96.83;99050.91;4981638;28;20053;-76
2024/03/10 04:29:31;;;;;;;15.45;10.02;;;;;;;13.08;96.60;99047.75;5015760;28;20052;-78
2024/03/10 04:32:35;;;;;;;12.80;9.15;;;;;;;13.20;95.48;99043.59;4992261;28;20381;-78
2024/03/10 04:35:40;;;;;;;13.18;9.38;;;;;;;13.13;95.99;99053.44;5003690;28;20049;-78
2024/03/10 04:38:45;;;;;;;10.25;8.43;;;;;;;13.25;96.08;99043.88;5015624;28;20118;-78
2024/03/10 04:41:49;;;;;;;12.07;8.73;;;;;;;12.94;96.51;99032.34;5015295;28;20048;-78
2024/03/10 04:44:54;;;;;;;12.27;8.95;;;;;;;13.00;97.20;99024.38;5015741;28;20056;-78
2024/03/10 04:47:58;;;;;;;15.25;9.85;;;;;;;13.07;96.18;99024.50;5015502;28;20041;-78
2024/03/10 04:51:03;;;;;;;12.48;10.07;;;;;;;13.09;96.28;99008.16;5014950;28;20484;-78
2024/03/10 04:54:08;;;;;;;13.73;10.25;;;;;;;13.19;96.12;99004.19;5015375;28;20053;-78
2024/03/10 04:57:13;;;;;;;14.57;10.52;;;;;;;13.23;95.27;99010.06;5015331;28;20053;-77
2024/03/10 05:00:18;;;;;;;13.85;11.32;;;;;;;13.09;96.81;99005.47;5014934;28;20049;-78
2024/03/10 05:03:23;;;;;;;19.42;12.57;;;;;;;13.12;96.22;98997.03;5015181;28;20049;-78
2024/03/10 05:06:27;;;;;;;17.40;12.30;;;;;;;13.15;96.01;99000.19;5015138;28;20064;-78
2024/03/10 05:09:32;;;;;;;17.02;12.60;;;;;;;12.99;97.37;98987.69;4980513;28;20046;-78
2024/03/10 05:12:38;;;;;;;16.40;12.68;;;;;;;13.19;96.39;98982.63;5014461;28;20050;-78
2024/03/10 05:15:43;;;;;;;17.88;13.85;;;;;;;13.26;96.33;98978.16;5002846;28;20038;-78
2024/03/10 05:18:47;;;;;;;20.58;14.15;;;;;;;13.48;95.07;98963.75;5014957;28;20499;-78
2024/03/10 05:21:53;;;;;;;21.17;13.90;;;;;;;13.52;95.23;98956.16;5014766;28;20065;-78
2024/03/10 05:24:58;;;;;;;17.05;13.38;;;;;;;13.45;95.66;98961.47;5015087;28;20065;-78
2024/03/10 05:28:04;;;;;;;18.73;14.02;;;;;;;13.39;95.17;98951.41;5019711;28;20049;-78
2024/03/10 05:31:26;;;;;;;20.35;14.88;;;;;;;13.40;95.02;98945.03;5025625;28;20057;-79
2024/03/10 05:34:32;;;;;;;20.38;13.60;;;;;;;13.58;95.02;98947.28;5014767;28;20034;-78
2024/03/10 05:37:36;;;;;;;22.73;14.82;;;;;;;13.73;94.16;98955.38;5002679;28;20108;-78
2024/03/10 05:40:41;;;;;;;20.65;15.00;;;;;;;13.80;93.24;98959.81;5014548;28;20049;-78
2024/03/10 05:43:47;;;;;;;19.60;15.13;;;;;;;13.75;93.95;98954.19;5014643;28;20053;-77
2024/03/10 05:46:51;;;;;;;17.92;14.77;;;;;;;14.02;92.70;98952.63;5014538;28;20061;-78
2024/03/10 05:49:57;;;;;;;20.02;15.35;;;;;;;14.02;92.99;98942.63;5014415;28;20053;-79
2024/03/10 05:53:02;;;;;;;21.95;17.23;;;;;;;14.13;92.09;98933.22;5014424;28;20108;-77
2024/03/10 05:56:10;;;;;;;24.55;16.00;;;;;;;13.94;93.01;98917.66;5014451;28;20393;-78
2024/03/10 05:59:15;;;;;;;20.60;15.43;;;;;;;13.70;93.76;98922.34;5014273;28;20045;-77
2024/03/10 06:02:19;;;;;;;20.02;15.48;;;;;;;13.64;94.12;98916.91;5014101;28;20050;-78
2024/03/10 06:05:24;;;;;;;21.13;15.55;;;;;;;13.73;93.36;98920.34;5001860;28;20508;-78
2024/03/10 06:08:28;;;;;;;18.92;14.43;;;;;;;13.62;93.88;98908.16;5014138;28;20377;-77
2024/03/10 06:11:33;;;;;;;20.05;15.43;;;;;;;13.66;94.34;98915.69;5001841;28;20060;-77
2024/03/10 06:14:38;;;;;;;20.10;14.05;;;;;;;13.45;94.96;98899.47;5014188;28;20038;-78
2024/03/10 06:18:01;;;;;;;23.48;14.95;;;;;;;13.49;94.70;98895.34;5014061;28;20045;-77
2024/03/10 06:27:54;;;;;;;22.02;14.57;;;;;;;13.44;95.33;98870.00;5013952;28;20056;-79
2024/03/10 06:30:59;;;;;;;17.60;13.70;;;;;;;13.75;94.12;98881.38;5013955;28;20042;-77
2024/03/10 06:34:04;;;;;;;18.08;13.75;;;;;;;13.76;93.61;98874.94;5001863;28;20485;-78
2024/03/10 06:37:09;;;;;;;19.08;14.63;;;;;;;13.79;93.34;98879.94;5013715;28;20045;-76
2024/03/10 06:40:15;;;;;;;21.27;14.25;;;;;;;13.76;93.84;98861.44;5013686;28;20092;-77
2024/03/10 06:43:21;;;;;;;20.83;15.18;;;;;;;13.30;96.07;98860.91;5013851;28;20050;-76
2024/03/10 06:46:26;;;;;;;17.98;14.00;;;;;;;13.80;93.96;98859.22;5013635;28;20057;-75
2024/03/10 06:49:31;;;;;;;18.13;13.65;;;;;;;13.20;96.41;98859.53;5013404;28;20057;-76
2024/03/10 06:52:36;;;;;;;23.40;14.70;;;;;;;13.61;94.53;98849.88;5013676;28;20050;-78
2024/03/10 06:55:41;;;;;;;22.95;15.45;;;;;;;13.62;94.53;98843.47;5013618;28;20041;-76
2024/03/10 06:58:51;;;;;;;21.30;14.52;;;;;;;13.47;95.19;98856.13;5013556;28;20057;-76
2024/03/10 07:01:55;;;;;;;20.83;14.35;;;;;;;13.73;94.80;98844.81;5013314;28;20046;-78
2024/03/10 07:05:09;;;;;;;17.58;13.35;;;;;;;13.59;94.70;98844.69;5013721;28;20057;-78
2024/03/10 07:08:16;;;;;;;19.33;13.90;;;;;;;13.74;94.17;98830.31;4995518;28;20050;-77
2024/03/10 07:11:20;;;;;;;22.38;14.73;;;;;;;13.49;95.79;98843.31;5013163;28;20053;-78
2024/03/10 07:14:26;;;;;;;18.13;13.02;;;;;;;13.74;94.62;98841.09;5014247;28;20389;-78
2024/03/10 07:17:30;;;;;;;18.63;13.30;;;;;;;13.75;94.51;98837.38;5017148;28;20069;-74
2024/03/10 07:20:35;;;;;;;17.25;13.57;;;;;;;13.65;94.52;98843.09;5004936;28;20405;-77
2024/03/10 07:23:40;;;;;;;23.60;14.82;;;;;;;13.91;93.80;98835.25;5017110;28;20046;-77
2024/03/10 07:26:45;;;;;;;19.77;13.05;;;;;;;13.77;94.60;98827.22;5017069;28;20034;-78
2024/03/10 07:29:49;;;;;;;25.50;14.05;;;;;;;13.66;94.82;98844.75;5017000;28;20034;-78
2024/03/10 07:32:53;;;;;;;19.23;14.02;;;;;;;13.69;94.91;98845.19;5004938;28;20044;-78
2024/03/10 07:35:59;;;;;;;20.60;14.65;;;;;;;13.84;95.08;98836.22;5016606;28;20057;-80
2024/03/10 07:39:06;;;;;;;19.20;14.02;;;;;;;13.88;93.51;98813.22;5004801;28;20053;-75
2024/03/10 07:42:10;;;;;;;16.98;14.32;;;;;;;14.04;92.96;98799.47;5016735;28;20057;-77
2024/03/10 07:45:17;;;;;;;19.27;13.82;;;;;;;14.10;93.24;98783.31;5016666;28;20065;-78
2024/03/10 07:48:22;;;;;;;19.17;13.93;;;;;;;14.11;92.12;98767.97;5016656;28;20065;-78
2024/03/10 07:51:29;;;;;;;17.77;13.85;;;;;;;13.95;93.29;98774.47;5016673;28;20061;-78
2024/03/10 07:54:33;;;;;;;17.45;12.68;;;;;;;14.12;92.94;98775.06;5004437;28;20045;-78
2024/03/10 07:57:41;;;;;;;18.45;12.32;;;;;;;14.12;93.02;98758.88;5016568;28;20056;-77
2024/03/10 08:00:45;;;;;;;20.63;10.80;;;;;;;14.36;92.72;98755.75;5016386;28;20488;-79
2024/03/10 08:03:50;;;;;;;21.52;12.35;;;;;;;14.38;91.42;98745.56;5016440;28;20049;-77
2024/03/10 08:06:55;;;;;;;16.00;11.63;;;;;;;14.27;91.73;98746.06;5016352;28;20052;-77
2024/03/10 08:10:00;;;;;;;17.17;10.75;;;;;;;13.95;93.72;98736.72;5003988;28;20402;-76
2024/03/10 08:13:05;;;;;;;18.23;12.30;;;;;;;14.14;93.09;98722.56;5015455;28;20512;-76
2024/03/10 08:16:09;;;;;;;18.92;11.40;;;;;;;14.22;93.30;98743.16;5016314;28;20049;-76
2024/03/10 08:19:14;;;;;;;14.95;10.77;;;;;;;13.96;94.33;98710.59;5015966;28;20382;-76
2024/03/10 08:22:20;;;;;;;13.60;9.63;;;;;;;14.24;92.92;98708.72;5015838;28;20157;-76
2024/03/10 08:25:24;;;;;;;22.20;11.65;;;;;;;14.12;92.83;98702.19;5015854;28;20377;-76
2024/03/10 08:28:29;;;;;;;16.38;10.68;;;;;;;14.27;92.16;98692.09;5015782;28;20053;-77
2024/03/10 08:31:33;;;;;;;13.73;9.30;;;;;;;14.41;92.22;98683.09;5015494;28;20041;-78
2024/03/10 08:34:38;;;;;;;13.93;9.57;;;;;;;14.44;91.69;98682.72;5015756;28;20389;-77
2024/03/10 08:37:44;;;;;;;12.63;9.32;;;;;;;14.23;93.31;98671.94;5015711;28;20072;-77
2024/03/10 08:40:52;;;;;;;14.00;8.93;;;;;;;14.39;92.09;98668.97;5015630;28;20057;-78
2024/03/10 08:43:56;;;;;;;15.63;8.50;;;;;;;14.70;91.40;98654.97;5015545;28;20049;-77
2024/03/10 08:47:02;;;;;;;12.85;8.75;;;;;;;14.40;92.29;98653.59;5015570;28;20049;-77
2024/03/10 08:50:09;;;;;;;16.85;8.73;;;;;;;14.31;92.27;98644.84;5015495;28;20049;-78
2024/03/10 08:53:14;;;;;;;13.55;8.43;;;;;;;14.28;92.55;98624.44;5015479;28;20069;-78
2024/03/10 08:56:18;;;;;;;14.23;9.13;;;;;;;14.23;93.53;98618.81;5015200;28;20041;-78
2024/03/10 08:59:24;;;;;;;15.40;8.32;;;;;;;14.74;91.32;98608.44;5003302;28;20045;-78
2024/03/10 09:02:29;;;;;;;12.50;8.45;;;;;;;14.77;90.43;98597.25;5015213;28;20057;-78
2024/03/10 09:05:35;;;;;;;13.52;8.20;;;;;;;14.75;91.27;98587.69;4974277;28;20583;-78
2024/03/10 09:08:39;;;;;;;14.20;8.13;;;;;;;14.67;91.17;98572.50;4963091;28;20049;-78
2024/03/10 09:11:45;;;;;;;14.13;7.57;;;;;;;14.58;90.90;98562.09;4962618;28;20053;-78
2024/03/10 09:14:50;;;;;;;18.40;8.73;;;;;;;14.94;90.24;98558.00;4974218;28;20151;-78
2024/03/10 09:17:55;;;;;;;10.60;7.53;;;;;;;15.20;89.46;98559.88;4962810;28;20541;-78
2024/03/10 09:21:01;;;;;;;10.00;5.82;;;;;;;15.49;87.79;98555.94;4973982;28;20430;-77
2024/03/10 09:24:06;;;;;;;12.75;6.43;;;;;;;15.66;86.48;98562.59;4973844;28;20538;-78
2024/03/10 09:27:10;;;;;;;9.48;6.05;;;;;;;15.75;85.98;98552.38;4974044;28;20058;-76
2024/03/10 09:30:17;;;;;;;11.15;5.43;;;;;;;15.80;85.72;98566.91;4973982;28;20058;-78
2024/03/10 09:33:22;;;;;;;10.75;5.35;;;;;;;15.67;85.82;98556.16;4962479;28;20549;-78
2024/03/10 09:36:27;;;;;;;12.40;5.20;;;;;;;15.66;85.40;98530.13;5001152;28;20048;-77
2024/03/10 09:39:31;;;;;;;12.02;5.07;;;;;;;15.75;84.75;98539.66;5002368;28;20064;-79
2024/03/10 09:42:37;;;;;;;9.32;4.20;;;;;;;15.59;85.83;98515.78;5002477;28;20056;-78
2024/03/10 09:45:48;;;;;;;11.95;5.18;;;;;;;15.55;85.68;98517.25;5014387;28;20052;-78
2024/03/10 09:48:53;;;;;;;12.40;4.65;;;;;;;15.42;87.00;98503.72;5014611;28;20053;-78
2024/03/10 09:51:58;;;;;;;11.82;4.80;;;;;;;15.63;86.48;98470.22;5014582;28;20377;-78
2024/03/10 09:55:04;;;;;;;9.18;4.38;;;;;;;15.91;85.52;98457.22;5002426;28;20048;-78
2024/03/10 09:58:15;;;;;;;7.70;4.00;;;;;;;15.56;86.88;98457.53;5014434;28;20386;-77
2024/03/10 10:01:24;;;;;;;10.98;5.22;;;;;;;15.58;86.53;98465.44;5014409;28;20046;-77
2024/03/10 10:04:36;;;;;;;11.00;4.10;;;;;;;15.43;87.47;98462.94;5014312;28;20053;-78
2024/03/10 10:07:40;;;;;;;6.50;3.42;;;;;;;15.63;87.23;98458.34;5002221;28;20053;-78
2024/03/10 10:10:51;;;;;;;13.30;4.80;;;;;;;15.41;88.06;98459.63;5014249;28;20056;-78
2024/03/10 10:14:09;;;;;;;12.80;4.22;;;;;;;15.28;88.81;98448.81;5014201;28;20053;-79
2024/03/10 10:17:22;;;;;;;7.03;3.20;;;;;;;15.58;87.31;98441.94;5002113;28;20061;-79
2024/03/10 10:20:28;;;;;;;6.53;3.58;;;;;;;15.93;86.31;98453.25;5014076;28;20053;-79
2024/03/10 10:23:35;;;;;;;7.88;3.58;;;;;;;15.57;87.89;98442.16;5013934;28;20053;-76
2024/03/10 10:26:40;;;;;;;9.90;3.35;;;;;;;15.94;86.75;98424.31;5014071;28;20057;-78
2024/03/10 10:29:50;;;;;;;13.20;3.05;;;;;;;15.47;86.96;98415.56;5013860;28;20072;-78
2024/03/10 10:33:08;;;;;;;5.20;2.53;;;;;;;15.98;86.45;98414.72;5013963;28;20049;-77
2024/03/10 10:36:14;;;;;;;10.27;3.00;;;;;;;16.07;85.03;98410.72;5013912;28;20057;-77
2024/03/10 10:39:26;;;;;;;6.43;2.80;;;;;;;16.08;85.15;98429.44;5013971;28;20089;-77
2024/03/10 10:42:31;;;;;;;10.90;2.97;;;;;;;16.16;85.00;98453.56;5013929;28;20064;-79
2024/03/10 10:45:36;;;;;;;12.07;3.05;;;;;;;15.82;86.32;98467.47;5013678;28;20052;-80
2024/03/10 10:48:41;;;;;;;9.63;2.88;;;;;;;15.75;87.65;98472.03;5001839;28;20492;-80
2024/03/10 10:51:56;;;;;;;13.25;3.45;;;;;;;15.43;88.42;98489.19;5017736;28;20053;-79
2024/03/10 10:55:02;;;;;;;7.07;4.30;;;;;;;15.40;89.85;98522.03;5005720;28;20061;-77
2024/03/10 10:58:11;;;;;;;12.30;3.67;;;;;;;15.48;90.32;98557.00;5005494;28;20057;-77
2024/03/10 11:01:18;;;;;;;9.98;3.85;;;;;;;15.28;91.68;98519.13;5005285;28;20068;-77
2024/03/10 11:04:26;;;;;;;10.25;3.75;;;;;;;15.42;90.26;98501.03;5017480;28;20069;-78
2024/03/10 11:07:32;;;;;;;7.95;2.88;;;;;;;15.39;90.51;98496.03;5017353;28;20049;-77
2024/03/10 11:10:48;;;;;;;6.88;2.45;;;;;;;15.46;91.11;98492.31;5017672;28;20065;-77
2024/03/10 11:13:55;;;;;;;8.82;2.60;;;;;;;15.67;90.92;98485.81;5017210;28;20402;-79
2024/03/10 11:17:12;;;;;;;4.28;2.00;;;;;;;15.71;90.96;98503.28;5005109;28;20049;-78
2024/03/10 11:20:17;;;;;;;4.50;2.00;;;;;;;15.68;88.81;98525.31;5004932;28;20049;-77
2024/03/10 11:23:50;;;;;;;4.85;1.67;;;;;;;15.72;87.07;98544.69;5016832;28;20077;-78
2024/03/10 11:27:16;;;;;;;5.00;2.20;;;;;;;15.98;87.07;98579.78;5017073;28;20052;-78
2024/03/10 11:30:44;;;;;;;5.10;2.30;;;;;;;15.95;86.39;98608.09;5005019;28;20057;-79
2024/03/10 11:33:54;;;;;;;5.95;2.40;;;;;;;15.80;87.30;98599.38;5017006;28;20507;-79
2024/03/10 11:36:58;;;;;;;9.43;2.70;;;;;;;15.97;85.73;98589.78;5004724;28;20393;-79
2024/03/10 11:40:04;;;;;;;5.20;2.75;;;;;;;16.03;86.18;98610.59;5016851;28;20045;-78
2024/03/10 11:43:10;;;;;;;12.85;5.93;;;;;;;15.81;86.88;98620.00;5016350;28;20492;-78
2024/03/10 11:46:26;;;;;;;10.02;6.00;;;;;;;15.89;86.46;98600.84;5016723;28;20397;-77
2024/03/10 11:49:31;;;;;;;10.75;6.63;;;;;;;16.03;85.83;98618.72;5004675;28;20389;-79
2024/03/10 11:52:35;;;;;;;7.20;3.30;;;;;;;16.24;84.99;98639.28;5004501;28;20053;-78
2024/03/10 11:55:41;;;;;;;5.07;3.05;;;;;;;16.40;84.54;98654.22;5016581;28;20053;-79
2024/03/10 11:58:47;;;;;;;5.05;2.55;;;;;;;16.31;85.88;98666.34;5004470;28;20049;-79
2024/03/10 12:01:53;;;;;;;4.10;2.75;;;;;;;16.53;84.92;98676.72;5015118;28;20057;-78
2024/03/10 12:04:59;;;;;;;8.48;3.60;;;;;;;16.58;85.21;98676.91;5016407;28;20049;-78
2024/03/10 12:08:08;;;;;;;4.65;1.92;;;;;;;16.18;83.15;98703.22;5016309;28;20056;-79
2024/03/10 12:11:13;;;;;;;1.30;0.50;;;;;;;15.78;76.02;98698.03;5016004;28;20050;-80
2024/03/10 12:14:17;;;;;;;2.90;1.10;;;;;;;15.66;73.33;98692.41;5016130;28;20425;-80
2024/03/10 12:17:22;;;;;;;3.58;0.40;;;;;;;15.92;72.99;98711.38;5015994;28;20049;-79
2024/03/10 12:20:27;;;;;;;3.17;0.40;;;;;;;15.70;74.65;98706.38;5003859;28;20048;-79
2024/03/10 12:23:34;;;;;;;1.40;0.45;;;;;;;15.59;75.35;98719.47;5016129;28;20057;-78
2024/03/10 12:26:39;;;;;;;2.50;0.90;;;;;;;15.50;75.34;98715.28;5015841;28;20049;-78
2024/03/10 12:29:50;;;;;;;2.67;0.90;;;;;;;15.44;76.30;98731.47;5015918;28;20097;-80
2024/03/10 12:32:55;;;;;;;4.03;1.52;;;;;;;14.90;77.32;98732.34;5015686;28;20354;-79
2024/03/10 12:36:00;;;;;;;5.53;3.50;;;;;;;14.87;78.74;98726.50;5015673;28;20044;-78
2024/03/10 12:39:11;;;;;;;5.45;3.42;;;;;;;14.15;81.92;98732.31;5015678;28;20049;-78
2024/03/10 12:42:16;;;;;;;4.38;1.05;;;;;;;14.28;83.12;98721.63;5015513;28;20057;-78
2024/03/10 12:45:20;;;;;;;3.13;1.08;;;;;;;14.08;81.46;98725.19;5003561;28;20056;-78
2024/03/10 12:48:27;;;;;;;2.13;1.10;;;;;;;14.06;79.99;98716.47;5015477;28;20495;-78
2024/03/10 12:51:32;;;;;;;3.13;1.80;;;;;;;14.02;79.63;98707.09;5003310;28;20072;-78
2024/03/10 12:54:37;;;;;;;2.35;1.35;;;;;;;13.75;79.48;98681.81;5015347;28;20049;-77
2024/03/10 12:57:42;;;;;;;1.63;0.70;;;;;;;13.69;78.78;98658.31;5015254;28;20053;-78
2024/03/10 13:00:47;;;;;;;3.03;1.50;;;;;;;13.81;78.72;98643.25;5015276;28;20373;-78
2024/03/10 13:03:51;;;;;;;3.92;1.08;;;;;;;13.98;77.93;98646.47;5002975;28;20057;-79
2024/03/10 13:06:57;;;;;;;2.03;0.70;;;;;;;13.80;76.85;98624.59;5014848;28;20050;-79
2024/03/10 13:10:02;;;;;;;2.58;0.93;;;;;;;13.81;77.59;98615.44;5014951;28;20069;-77
2024/03/10 13:13:10;;;;;;;2.70;1.08;;;;;;;13.92;76.25;98612.22;5014005;28;20405;-78
2024/03/10 13:16:15;;;;;;;1.95;0.75;;;;;;;14.02;77.61;98597.31;5014856;28;20420;-77
2024/03/10 13:19:20;;;;;;;1.88;0.75;;;;;;;14.54;76.22;98612.94;5014786;28;20076;-78
2024/03/10 13:22:24;;;;;;;8.25;0.85;;;;;;;14.10;76.14;98610.63;5014796;28;20370;-78
2024/03/10 13:25:29;;;;;;;1.00;0.32;;;;;;;14.61;75.98;98604.88;5014857;28;20053;-78
2024/03/10 13:28:34;;;;;;;1.08;0.38;;;;;;;14.47;75.97;98593.19;5014778;28;20496;-78
2024/03/10 13:31:38;;;;;;;21.08;11.02;;;;;;;14.38;76.43;98588.19;5002476;28;20068;-77
2024/03/10 13:34:42;;;;;;;2.70;1.10;;;;;;;14.41;74.94;98603.97;5014568;28;20057;-78
2024/03/10 13:37:47;;;;;;;3.85;1.10;;;;;;;14.52;73.68;98597.97;5014528;28;20488;-78
2024/03/10 13:40:51;;;;;;;1.17;0.55;;;;;;;14.48;72.58;98597.56;5014529;28;20045;-79
2024/03/10 13:43:56;;;;;;;1.80;0.55;;;;;;;14.84;71.33;98587.28;5014051;28;20076;-78
2024/03/10 13:47:01;;;;;;;2.85;1.20;;;;;;;14.72;71.64;98597.00;5014270;28;20409;-78
2024/03/10 13:50:10;;;;;;;3.88;2.10;;;;;;;14.71;70.96;98619.69;5014268;28;20045;-77
2024/03/10 13:53:16;;;;;;;13.23;4.18;;;;;;;14.94;70.52;98638.22;4991098;28;20053;-79
2024/03/10 13:56:20;;;;;;;3.33;1.17;;;;;;;15.36;70.54;98645.97;5013894;28;20065;-78
2024/03/10 13:59:25;;;;;;;4.07;1.60;;;;;;;15.98;68.43;98650.97;5014192;28;20045;-78
2024/03/10 14:02:29;;;;;;;3.00;0.65;;;;;;;16.63;66.91;98666.25;5013997;28;20050;-78
2024/03/10 14:05:36;;;;;;;1.33;0.47;;;;;;;16.78;67.58;98668.69;5014119;28;20480;-78
2024/03/10 14:08:41;;;;;;;1.20;0.45;;;;;;;17.17;68.12;98670.38;5014124;28;20053;-80
2024/03/10 14:11:46;;;;;;;1.58;0.40;;;;;;;17.38;65.24;98670.03;5013796;28;20057;-78
2024/03/10 14:14:50;;;;;;;2.38;0.35;;;;;;;17.16;62.93;98674.16;5013789;28;20421;-79
2024/03/10 14:17:56;;;;;;;0.70;0.20;;;;;;;16.87;62.83;98668.25;5014049;28;20072;-79
2024/03/10 14:21:01;;;;;;;4.00;0.52;;;;;;;16.74;60.84;98676.41;5013972;28;20049;-79
2024/03/10 14:24:06;;;;;;;4.43;0.82;;;;;;;17.16;61.80;98666.00;5001050;28;20053;-79
2024/03/10 14:27:11;;;;;;;10.50;4.13;;;;;;;17.30;63.25;98673.00;5013959;28;20366;-79
2024/03/10 14:30:17;;;;;;;11.13;6.18;;;;;;;17.34;63.35;98668.78;5013933;28;20052;-81
2024/03/10 14:33:22;;;;;;;1.98;0.70;;;;;;;17.25;61.53;98665.53;5013876;28;20065;-81
2024/03/10 14:36:31;;;;;;;3.83;1.80;;;;;;;17.29;61.33;98658.59;5001768;28;20065;-80
2024/03/10 14:39:36;;;;;;;3.92;0.90;;;;;;;16.91;60.35;98664.03;5002248;28;20049;-80
2024/03/10 14:42:51;;;;;;;0.70;0.20;;;;;;;17.02;58.73;98669.81;5001691;28;20528;-79
2024/03/10 14:45:57;;;;;;;2.75;0.40;;;;;;;17.06;59.90;98665.66;5013697;28;20045;-79